sensor_id;sensor_type;location;lat;lon;timestamp;P1;durP1;ratioP1;P2;durP2;ratioP2
11711;SDS011;5912;51.034;6.984;2024-02-26T00:01:07;1.48;;;0.90;;
11711;SDS011;5912;51.034;6.984;2024-02-26T00:03:32;1.38;;;0.73;;
11711;SDS011;5912;51.034;6.984;2024-02-26T00:06:01;1.70;;;0.88;;
11711;SDS011;5912;51.034;6.984;2024-02-26T00:08:27;0.95;;;0.73;;
11711;SDS011;5912;51.034;6.984;2024-02-26T00:10:53;1.45;;;0.70;;
11711;SDS011;5912;51.034;6.984;2024-02-26T00:13:18;1.52;;;0.60;;
11711;SDS011;5912;51.034;6.984;2024-02-26T00:15:45;1.60;;;0.73;;
11711;SDS011;5912;51.034;6.984;2024-02-26T00:18:11;0.73;;;0.70;;
11711;SDS011;5912;51.034;6.984;2024-02-26T00:20:36;0.63;;;0.63;;
11711;SDS011;5912;51.034;6.984;2024-02-26T00:23:02;1.15;;;0.77;;
11711;SDS011;5912;51.034;6.984;2024-02-26T00:25:27;1.20;;;0.80;;
11711;SDS011;5912;51.034;6.984;2024-02-26T00:27:53;1.08;;;0.70;;
11711;SDS011;5912;51.034;6.984;2024-02-26T00:30:18;1.60;;;0.90;;
11711;SDS011;5912;51.034;6.984;2024-02-26T00:32:43;1.33;;;0.77;;
11711;SDS011;5912;51.034;6.984;2024-02-26T00:35:09;0.85;;;0.75;;
11711;SDS011;5912;51.034;6.984;2024-02-26T00:37:35;0.60;;;0.60;;
11711;SDS011;5912;51.034;6.984;2024-02-26T00:40:00;2.03;;;1.05;;
11711;SDS011;5912;51.034;6.984;2024-02-26T00:42:26;1.23;;;0.60;;
11711;SDS011;5912;51.034;6.984;2024-02-26T00:44:52;1.05;;;0.90;;
11711;SDS011;5912;51.034;6.984;2024-02-26T00:47:18;1.48;;;0.80;;
11711;SDS011;5912;51.034;6.984;2024-02-26T00:49:43;1.17;;;0.90;;
11711;SDS011;5912;51.034;6.984;2024-02-26T00:52:09;0.93;;;0.80;;
11711;SDS011;5912;51.034;6.984;2024-02-26T00:54:35;2.13;;;0.82;;
11711;SDS011;5912;51.034;6.984;2024-02-26T00:57:01;1.10;;;0.70;;
11711;SDS011;5912;51.034;6.984;2024-02-26T00:59:26;0.90;;;0.60;;
11711;SDS011;5912;51.034;6.984;2024-02-26T01:01:52;1.30;;;0.70;;
11711;SDS011;5912;51.034;6.984;2024-02-26T01:04:18;0.75;;;0.55;;
11711;SDS011;5912;51.034;6.984;2024-02-26T01:06:43;0.80;;;0.50;;
11711;SDS011;5912;51.034;6.984;2024-02-26T01:09:09;0.70;;;0.60;;
11711;SDS011;5912;51.034;6.984;2024-02-26T01:11:35;0.80;;;0.50;;
11711;SDS011;5912;51.034;6.984;2024-02-26T01:14:01;1.20;;;0.55;;
11711;SDS011;5912;51.034;6.984;2024-02-26T01:16:26;0.70;;;0.50;;
11711;SDS011;5912;51.034;6.984;2024-02-26T01:18:55;0.82;;;0.63;;
11711;SDS011;5912;51.034;6.984;2024-02-26T01:21:21;0.50;;;0.50;;
11711;SDS011;5912;51.034;6.984;2024-02-26T01:23:47;0.55;;;0.45;;
11711;SDS011;5912;51.034;6.984;2024-02-26T01:26:12;0.63;;;0.40;;
11711;SDS011;5912;51.034;6.984;2024-02-26T01:28:38;0.77;;;0.50;;
11711;SDS011;5912;51.034;6.984;2024-02-26T01:31:04;0.68;;;0.52;;
11711;SDS011;5912;51.034;6.984;2024-02-26T01:33:32;1.08;;;0.73;;
11711;SDS011;5912;51.034;6.984;2024-02-26T01:35:58;0.60;;;0.60;;
11711;SDS011;5912;51.034;6.984;2024-02-26T01:38:25;0.43;;;0.43;;
11711;SDS011;5912;51.034;6.984;2024-02-26T01:40:52;0.50;;;0.47;;
11711;SDS011;5912;51.034;6.984;2024-02-26T01:43:18;0.63;;;0.50;;
11711;SDS011;5912;51.034;6.984;2024-02-26T01:45:43;0.70;;;0.40;;
11711;SDS011;5912;51.034;6.984;2024-02-26T01:48:09;0.60;;;0.50;;
11711;SDS011;5912;51.034;6.984;2024-02-26T01:50:35;1.23;;;0.60;;
11711;SDS011;5912;51.034;6.984;2024-02-26T01:53:03;0.85;;;0.57;;
11711;SDS011;5912;51.034;6.984;2024-02-26T01:55:29;1.00;;;0.60;;
11711;SDS011;5912;51.034;6.984;2024-02-26T01:57:55;0.60;;;0.60;;
11711;SDS011;5912;51.034;6.984;2024-02-26T02:00:20;0.95;;;0.47;;
11711;SDS011;5912;51.034;6.984;2024-02-26T02:02:47;0.93;;;0.50;;
11711;SDS011;5912;51.034;6.984;2024-02-26T02:05:14;0.70;;;0.70;;
11711;SDS011;5912;51.034;6.984;2024-02-26T02:07:42;0.80;;;0.60;;
11711;SDS011;5912;51.034;6.984;2024-02-26T02:10:08;0.77;;;0.60;;
11711;SDS011;5912;51.034;6.984;2024-02-26T02:12:34;1.00;;;0.52;;
11711;SDS011;5912;51.034;6.984;2024-02-26T02:15:01;0.90;;;0.70;;
11711;SDS011;5912;51.034;6.984;2024-02-26T02:17:27;0.90;;;0.70;;
11711;SDS011;5912;51.034;6.984;2024-02-26T02:19:53;0.77;;;0.57;;
11711;SDS011;5912;51.034;6.984;2024-02-26T02:22:18;1.30;;;0.70;;
11711;SDS011;5912;51.034;6.984;2024-02-26T02:24:44;0.65;;;0.50;;
11711;SDS011;5912;51.034;6.984;2024-02-26T02:27:10;1.63;;;0.60;;
11711;SDS011;5912;51.034;6.984;2024-02-26T02:29:49;0.60;;;0.60;;
11711;SDS011;5912;51.034;6.984;2024-02-26T02:32:17;2.37;;;0.70;;
11711;SDS011;5912;51.034;6.984;2024-02-26T02:34:44;1.30;;;0.70;;
11711;SDS011;5912;51.034;6.984;2024-02-26T02:37:10;1.00;;;0.70;;
11711;SDS011;5912;51.034;6.984;2024-02-26T02:39:36;0.77;;;0.50;;
11711;SDS011;5912;51.034;6.984;2024-02-26T02:42:01;0.57;;;0.57;;
11711;SDS011;5912;51.034;6.984;2024-02-26T02:44:27;1.05;;;0.60;;
11711;SDS011;5912;51.034;6.984;2024-02-26T02:46:52;1.00;;;0.50;;
11711;SDS011;5912;51.034;6.984;2024-02-26T02:49:18;2.78;;;0.43;;
11711;SDS011;5912;51.034;6.984;2024-02-26T02:51:44;0.90;;;0.50;;
11711;SDS011;5912;51.034;6.984;2024-02-26T02:54:09;0.70;;;0.52;;
11711;SDS011;5912;51.034;6.984;2024-02-26T02:56:35;2.47;;;0.80;;
11711;SDS011;5912;51.034;6.984;2024-02-26T02:59:00;0.68;;;0.50;;
11711;SDS011;5912;51.034;6.984;2024-02-26T03:01:27;0.70;;;0.60;;
11711;SDS011;5912;51.034;6.984;2024-02-26T03:03:52;0.67;;;0.67;;
11711;SDS011;5912;51.034;6.984;2024-02-26T03:06:17;0.90;;;0.57;;
11711;SDS011;5912;51.034;6.984;2024-02-26T03:08:43;3.10;;;0.52;;
11711;SDS011;5912;51.034;6.984;2024-02-26T03:11:13;0.60;;;0.50;;
11711;SDS011;5912;51.034;6.984;2024-02-26T03:13:40;0.65;;;0.57;;
11711;SDS011;5912;51.034;6.984;2024-02-26T03:16:06;1.20;;;0.70;;
11711;SDS011;5912;51.034;6.984;2024-02-26T03:18:31;1.47;;;0.87;;
11711;SDS011;5912;51.034;6.984;2024-02-26T03:20:57;2.40;;;0.67;;
11711;SDS011;5912;51.034;6.984;2024-02-26T03:23:22;1.55;;;0.60;;
11711;SDS011;5912;51.034;6.984;2024-02-26T03:25:48;1.33;;;0.68;;
11711;SDS011;5912;51.034;6.984;2024-02-26T03:28:13;0.93;;;0.60;;
11711;SDS011;5912;51.034;6.984;2024-02-26T03:30:39;0.70;;;0.50;;
11711;SDS011;5912;51.034;6.984;2024-02-26T03:33:04;1.23;;;0.50;;
11711;SDS011;5912;51.034;6.984;2024-02-26T03:35:29;0.98;;;0.60;;
11711;SDS011;5912;51.034;6.984;2024-02-26T03:37:55;0.60;;;0.50;;
11711;SDS011;5912;51.034;6.984;2024-02-26T03:40:20;0.45;;;0.45;;
11711;SDS011;5912;51.034;6.984;2024-02-26T03:42:46;1.00;;;0.52;;
11711;SDS011;5912;51.034;6.984;2024-02-26T03:45:11;0.50;;;0.40;;
11711;SDS011;5912;51.034;6.984;2024-02-26T03:47:37;1.40;;;0.70;;
11711;SDS011;5912;51.034;6.984;2024-02-26T03:50:05;0.57;;;0.40;;
11711;SDS011;5912;51.034;6.984;2024-02-26T03:52:32;1.15;;;0.50;;
11711;SDS011;5912;51.034;6.984;2024-02-26T03:54:58;0.50;;;0.50;;
11711;SDS011;5912;51.034;6.984;2024-02-26T03:57:23;0.55;;;0.50;;
11711;SDS011;5912;51.034;6.984;2024-02-26T03:59:49;1.23;;;0.70;;
11711;SDS011;5912;51.034;6.984;2024-02-26T04:02:14;1.07;;;0.67;;
11711;SDS011;5912;51.034;6.984;2024-02-26T04:04:41;1.27;;;0.77;;
11711;SDS011;5912;51.034;6.984;2024-02-26T04:07:07;0.67;;;0.67;;
11711;SDS011;5912;51.034;6.984;2024-02-26T04:09:32;0.50;;;0.47;;
11711;SDS011;5912;51.034;6.984;2024-02-26T04:11:58;1.00;;;0.70;;
11711;SDS011;5912;51.034;6.984;2024-02-26T04:14:23;0.60;;;0.60;;
11711;SDS011;5912;51.034;6.984;2024-02-26T04:19:42;1.40;;;0.70;;
11711;SDS011;5912;51.034;6.984;2024-02-26T04:22:08;1.03;;;0.70;;
11711;SDS011;5912;51.034;6.984;2024-02-26T04:24:35;0.60;;;0.60;;
11711;SDS011;5912;51.034;6.984;2024-02-26T04:27:01;1.60;;;0.82;;
11711;SDS011;5912;51.034;6.984;2024-02-26T04:29:26;1.50;;;0.80;;
11711;SDS011;5912;51.034;6.984;2024-02-26T04:31:52;1.07;;;0.67;;
11711;SDS011;5912;51.034;6.984;2024-02-26T04:34:17;0.63;;;0.60;;
11711;SDS011;5912;51.034;6.984;2024-02-26T04:36:43;1.00;;;0.50;;
11711;SDS011;5912;51.034;6.984;2024-02-26T04:39:09;0.85;;;0.70;;
11711;SDS011;5912;51.034;6.984;2024-02-26T04:41:35;0.80;;;0.80;;
11711;SDS011;5912;51.034;6.984;2024-02-26T04:44:01;1.20;;;0.60;;
11711;SDS011;5912;51.034;6.984;2024-02-26T04:46:27;1.92;;;0.95;;
11711;SDS011;5912;51.034;6.984;2024-02-26T04:48:53;1.95;;;0.60;;
11711;SDS011;5912;51.034;6.984;2024-02-26T04:51:19;1.43;;;0.83;;
11711;SDS011;5912;51.034;6.984;2024-02-26T04:53:45;1.17;;;0.73;;
11711;SDS011;5912;51.034;6.984;2024-02-26T04:56:10;0.95;;;0.70;;
11711;SDS011;5912;51.034;6.984;2024-02-26T04:58:36;1.43;;;0.80;;
11711;SDS011;5912;51.034;6.984;2024-02-26T05:01:02;1.73;;;0.65;;
11711;SDS011;5912;51.034;6.984;2024-02-26T05:03:28;2.67;;;0.73;;
11711;SDS011;5912;51.034;6.984;2024-02-26T05:05:54;0.90;;;0.80;;
11711;SDS011;5912;51.034;6.984;2024-02-26T05:08:22;1.27;;;0.80;;
11711;SDS011;5912;51.034;6.984;2024-02-26T05:10:48;2.90;;;0.80;;
11711;SDS011;5912;51.034;6.984;2024-02-26T05:13:13;1.20;;;0.90;;
11711;SDS011;5912;51.034;6.984;2024-02-26T05:15:40;1.20;;;0.97;;
11711;SDS011;5912;51.034;6.984;2024-02-26T05:18:06;1.70;;;1.10;;
11711;SDS011;5912;51.034;6.984;2024-02-26T05:20:33;2.90;;;0.80;;
11711;SDS011;5912;51.034;6.984;2024-02-26T05:23:01;3.17;;;1.23;;
11711;SDS011;5912;51.034;6.984;2024-02-26T05:25:27;2.43;;;1.07;;
11711;SDS011;5912;51.034;6.984;2024-02-26T05:27:52;1.27;;;0.90;;
11711;SDS011;5912;51.034;6.984;2024-02-26T05:30:18;2.83;;;1.10;;
11711;SDS011;5912;51.034;6.984;2024-02-26T05:32:46;1.70;;;1.00;;
11711;SDS011;5912;51.034;6.984;2024-02-26T05:35:13;1.30;;;1.00;;
11711;SDS011;5912;51.034;6.984;2024-02-26T05:37:40;2.20;;;1.10;;
11711;SDS011;5912;51.034;6.984;2024-02-26T05:40:05;1.30;;;0.98;;
11711;SDS011;5912;51.034;6.984;2024-02-26T05:42:31;1.43;;;0.80;;
11711;SDS011;5912;51.034;6.984;2024-02-26T05:44:58;1.63;;;1.10;;
11711;SDS011;5912;51.034;6.984;2024-02-26T05:47:24;1.27;;;1.07;;
11711;SDS011;5912;51.034;6.984;2024-02-26T05:49:50;2.00;;;1.30;;
11711;SDS011;5912;51.034;6.984;2024-02-26T05:52:15;1.95;;;0.93;;
11711;SDS011;5912;51.034;6.984;2024-02-26T05:54:41;1.80;;;0.90;;
11711;SDS011;5912;51.034;6.984;2024-02-26T05:57:06;3.90;;;1.92;;
11711;SDS011;5912;51.034;6.984;2024-02-26T05:59:32;1.47;;;0.70;;
11711;SDS011;5912;51.034;6.984;2024-02-26T06:01:57;1.57;;;0.93;;
11711;SDS011;5912;51.034;6.984;2024-02-26T06:04:24;3.10;;;1.20;;
11711;SDS011;5912;51.034;6.984;2024-02-26T06:06:49;1.90;;;1.00;;
11711;SDS011;5912;51.034;6.984;2024-02-26T06:09:15;1.77;;;0.97;;
11711;SDS011;5912;51.034;6.984;2024-02-26T06:11:40;1.07;;;0.90;;
11711;SDS011;5912;51.034;6.984;2024-02-26T06:14:06;1.43;;;1.13;;
11711;SDS011;5912;51.034;6.984;2024-02-26T06:16:31;1.30;;;1.20;;
11711;SDS011;5912;51.034;6.984;2024-02-26T06:18:57;3.33;;;1.20;;
11711;SDS011;5912;51.034;6.984;2024-02-26T06:21:23;2.70;;;1.03;;
11711;SDS011;5912;51.034;6.984;2024-02-26T06:23:48;2.63;;;1.10;;
11711;SDS011;5912;51.034;6.984;2024-02-26T06:26:15;1.77;;;0.80;;
11711;SDS011;5912;51.034;6.984;2024-02-26T06:28:41;3.10;;;1.07;;
11711;SDS011;5912;51.034;6.984;2024-02-26T06:31:06;3.10;;;1.20;;
11711;SDS011;5912;51.034;6.984;2024-02-26T06:33:32;2.40;;;1.17;;
11711;SDS011;5912;51.034;6.984;2024-02-26T06:35:58;1.73;;;1.23;;
11711;SDS011;5912;51.034;6.984;2024-02-26T06:38:23;3.73;;;1.63;;
11711;SDS011;5912;51.034;6.984;2024-02-26T06:40:49;3.22;;;1.40;;
11711;SDS011;5912;51.034;6.984;2024-02-26T06:43:14;2.13;;;1.30;;
11711;SDS011;5912;51.034;6.984;2024-02-26T06:45:40;1.80;;;1.30;;
11711;SDS011;5912;51.034;6.984;2024-02-26T06:48:06;1.75;;;1.10;;
11711;SDS011;5912;51.034;6.984;2024-02-26T06:50:31;1.60;;;1.20;;
11711;SDS011;5912;51.034;6.984;2024-02-26T06:52:57;1.63;;;1.20;;
11711;SDS011;5912;51.034;6.984;2024-02-26T06:55:22;3.23;;;1.30;;
11711;SDS011;5912;51.034;6.984;2024-02-26T06:57:48;3.20;;;1.17;;
11711;SDS011;5912;51.034;6.984;2024-02-26T07:00:14;2.30;;;1.27;;
11711;SDS011;5912;51.034;6.984;2024-02-26T07:02:41;2.47;;;1.23;;
11711;SDS011;5912;51.034;6.984;2024-02-26T07:05:07;1.80;;;1.10;;
11711;SDS011;5912;51.034;6.984;2024-02-26T07:07:33;3.80;;;1.23;;
11711;SDS011;5912;51.034;6.984;2024-02-26T07:09:59;2.37;;;1.00;;
11711;SDS011;5912;51.034;6.984;2024-02-26T07:12:25;1.37;;;1.20;;
11711;SDS011;5912;51.034;6.984;2024-02-26T07:14:50;3.17;;;1.17;;
11711;SDS011;5912;51.034;6.984;2024-02-26T07:17:17;1.20;;;0.97;;
11711;SDS011;5912;51.034;6.984;2024-02-26T07:19:42;1.23;;;1.07;;
11711;SDS011;5912;51.034;6.984;2024-02-26T07:22:08;1.70;;;1.30;;
11711;SDS011;5912;51.034;6.984;2024-02-26T07:24:34;1.97;;;1.40;;
11711;SDS011;5912;51.034;6.984;2024-02-26T07:26:59;1.57;;;0.90;;
11711;SDS011;5912;51.034;6.984;2024-02-26T07:29:25;1.77;;;1.03;;
11711;SDS011;5912;51.034;6.984;2024-02-26T07:31:50;2.17;;;1.00;;
11711;SDS011;5912;51.034;6.984;2024-02-26T07:34:16;4.67;;;1.40;;
11711;SDS011;5912;51.034;6.984;2024-02-26T07:36:42;1.70;;;1.10;;
11711;SDS011;5912;51.034;6.984;2024-02-26T07:39:07;2.17;;;1.17;;
11711;SDS011;5912;51.034;6.984;2024-02-26T07:41:33;1.80;;;1.17;;
11711;SDS011;5912;51.034;6.984;2024-02-26T07:43:58;2.43;;;1.10;;
11711;SDS011;5912;51.034;6.984;2024-02-26T07:46:24;1.97;;;1.10;;
11711;SDS011;5912;51.034;6.984;2024-02-26T07:48:49;1.77;;;1.47;;
11711;SDS011;5912;51.034;6.984;2024-02-26T07:51:15;2.27;;;1.60;;
11711;SDS011;5912;51.034;6.984;2024-02-26T07:53:40;1.60;;;1.10;;
11711;SDS011;5912;51.034;6.984;2024-02-26T07:56:06;2.13;;;1.20;;
11711;SDS011;5912;51.034;6.984;2024-02-26T07:58:34;1.40;;;1.10;;
11711;SDS011;5912;51.034;6.984;2024-02-26T08:01:00;1.70;;;1.10;;
11711;SDS011;5912;51.034;6.984;2024-02-26T08:03:26;1.50;;;1.20;;
11711;SDS011;5912;51.034;6.984;2024-02-26T08:05:51;1.57;;;1.10;;
11711;SDS011;5912;51.034;6.984;2024-02-26T08:08:17;1.50;;;1.20;;
11711;SDS011;5912;51.034;6.984;2024-02-26T08:10:42;2.30;;;1.00;;
11711;SDS011;5912;51.034;6.984;2024-02-26T08:13:08;1.20;;;1.10;;
11711;SDS011;5912;51.034;6.984;2024-02-26T08:15:34;1.40;;;1.00;;
11711;SDS011;5912;51.034;6.984;2024-02-26T08:18:02;1.40;;;1.10;;
11711;SDS011;5912;51.034;6.984;2024-02-26T08:20:28;3.07;;;1.23;;
11711;SDS011;5912;51.034;6.984;2024-02-26T08:22:55;1.47;;;1.10;;
11711;SDS011;5912;51.034;6.984;2024-02-26T08:25:20;1.83;;;1.10;;
11711;SDS011;5912;51.034;6.984;2024-02-26T08:27:46;1.47;;;1.27;;
11711;SDS011;5912;51.034;6.984;2024-02-26T08:30:13;1.43;;;1.07;;
11711;SDS011;5912;51.034;6.984;2024-02-26T08:32:45;2.43;;;1.23;;
11711;SDS011;5912;51.034;6.984;2024-02-26T08:35:12;4.33;;;1.20;;
11711;SDS011;5912;51.034;6.984;2024-02-26T08:37:38;2.40;;;1.00;;
11711;SDS011;5912;51.034;6.984;2024-02-26T08:40:04;1.50;;;1.30;;
11711;SDS011;5912;51.034;6.984;2024-02-26T08:42:30;1.10;;;1.00;;
11711;SDS011;5912;51.034;6.984;2024-02-26T08:44:56;1.67;;;1.10;;
11711;SDS011;5912;51.034;6.984;2024-02-26T08:47:25;1.30;;;1.20;;
11711;SDS011;5912;51.034;6.984;2024-02-26T08:49:50;1.30;;;1.20;;
11711;SDS011;5912;51.034;6.984;2024-02-26T08:52:16;3.53;;;1.23;;
11711;SDS011;5912;51.034;6.984;2024-02-26T08:54:42;2.30;;;1.27;;
11711;SDS011;5912;51.034;6.984;2024-02-26T08:57:07;4.20;;;1.40;;
11711;SDS011;5912;51.034;6.984;2024-02-26T08:59:33;1.97;;;1.33;;
11711;SDS011;5912;51.034;6.984;2024-02-26T09:01:59;1.33;;;1.20;;
11711;SDS011;5912;51.034;6.984;2024-02-26T09:04:25;1.40;;;1.30;;
11711;SDS011;5912;51.034;6.984;2024-02-26T09:06:52;2.23;;;1.20;;
11711;SDS011;5912;51.034;6.984;2024-02-26T09:09:18;4.03;;;1.10;;
11711;SDS011;5912;51.034;6.984;2024-02-26T09:11:45;1.10;;;1.00;;
11711;SDS011;5912;51.034;6.984;2024-02-26T09:14:12;2.43;;;1.30;;
11711;SDS011;5912;51.034;6.984;2024-02-26T09:16:37;2.20;;;0.97;;
11711;SDS011;5912;51.034;6.984;2024-02-26T09:19:03;3.70;;;1.27;;
11711;SDS011;5912;51.034;6.984;2024-02-26T09:21:29;1.30;;;1.13;;
11711;SDS011;5912;51.034;6.984;2024-02-26T09:23:55;1.20;;;1.10;;
11711;SDS011;5912;51.034;6.984;2024-02-26T09:26:21;2.13;;;1.23;;
11711;SDS011;5912;51.034;6.984;2024-02-26T09:28:47;1.83;;;1.10;;
11711;SDS011;5912;51.034;6.984;2024-02-26T09:31:14;1.27;;;1.10;;
11711;SDS011;5912;51.034;6.984;2024-02-26T09:33:42;1.50;;;1.10;;
11711;SDS011;5912;51.034;6.984;2024-02-26T09:36:07;2.00;;;1.30;;
11711;SDS011;5912;51.034;6.984;2024-02-26T09:38:35;1.40;;;1.20;;
11711;SDS011;5912;51.034;6.984;2024-02-26T09:41:03;1.77;;;1.23;;
11711;SDS011;5912;51.034;6.984;2024-02-26T09:43:35;1.90;;;1.37;;
11711;SDS011;5912;51.034;6.984;2024-02-26T09:46:01;1.77;;;1.20;;
11711;SDS011;5912;51.034;6.984;2024-02-26T09:48:28;2.07;;;1.20;;
11711;SDS011;5912;51.034;6.984;2024-02-26T09:50:55;2.50;;;1.40;;
11711;SDS011;5912;51.034;6.984;2024-02-26T09:53:21;1.70;;;1.30;;
11711;SDS011;5912;51.034;6.984;2024-02-26T09:55:47;2.27;;;1.40;;
11711;SDS011;5912;51.034;6.984;2024-02-26T09:58:13;1.40;;;1.30;;
11711;SDS011;5912;51.034;6.984;2024-02-26T10:00:43;1.87;;;1.20;;
11711;SDS011;5912;51.034;6.984;2024-02-26T10:03:15;3.53;;;1.20;;
11711;SDS011;5912;51.034;6.984;2024-02-26T10:05:41;1.47;;;1.20;;
11711;SDS011;5912;51.034;6.984;2024-02-26T10:08:08;1.23;;;1.00;;
11711;SDS011;5912;51.034;6.984;2024-02-26T10:10:35;1.60;;;1.30;;
11711;SDS011;5912;51.034;6.984;2024-02-26T10:13:03;2.20;;;1.40;;
11711;SDS011;5912;51.034;6.984;2024-02-26T10:15:34;1.40;;;1.30;;
11711;SDS011;5912;51.034;6.984;2024-02-26T10:18:03;1.30;;;1.20;;
11711;SDS011;5912;51.034;6.984;2024-02-26T10:20:29;1.90;;;1.50;;
11711;SDS011;5912;51.034;6.984;2024-02-26T10:22:56;1.40;;;1.07;;
11711;SDS011;5912;51.034;6.984;2024-02-26T10:25:22;2.03;;;1.43;;
11711;SDS011;5912;51.034;6.984;2024-02-26T10:27:47;2.07;;;1.20;;
11711;SDS011;5912;51.034;6.984;2024-02-26T10:30:17;1.93;;;1.33;;
11711;SDS011;5912;51.034;6.984;2024-02-26T10:32:44;2.45;;;1.20;;
11711;SDS011;5912;51.034;6.984;2024-02-26T10:35:11;1.60;;;1.40;;
11711;SDS011;5912;51.034;6.984;2024-02-26T10:37:38;1.63;;;1.30;;
11711;SDS011;5912;51.034;6.984;2024-02-26T10:40:05;2.67;;;1.40;;
11711;SDS011;5912;51.034;6.984;2024-02-26T10:42:34;2.30;;;1.50;;
11711;SDS011;5912;51.034;6.984;2024-02-26T10:45:00;1.63;;;1.33;;
11711;SDS011;5912;51.034;6.984;2024-02-26T10:47:27;1.83;;;1.40;;
11711;SDS011;5912;51.034;6.984;2024-02-26T10:49:53;1.83;;;1.30;;
11711;SDS011;5912;51.034;6.984;2024-02-26T10:52:19;1.60;;;1.50;;
11711;SDS011;5912;51.034;6.984;2024-02-26T10:54:47;1.70;;;1.50;;
11711;SDS011;5912;51.034;6.984;2024-02-26T10:57:15;1.67;;;1.50;;
11711;SDS011;5912;51.034;6.984;2024-02-26T10:59:43;3.27;;;1.43;;
11711;SDS011;5912;51.034;6.984;2024-02-26T11:02:10;3.22;;;1.50;;
11711;SDS011;5912;51.034;6.984;2024-02-26T11:04:36;2.35;;;1.65;;
11711;SDS011;5912;51.034;6.984;2024-02-26T11:07:03;3.65;;;2.00;;
11711;SDS011;5912;51.034;6.984;2024-02-26T11:09:31;2.55;;;1.80;;
11711;SDS011;5912;51.034;6.984;2024-02-26T11:11:57;3.97;;;1.73;;
11711;SDS011;5912;51.034;6.984;2024-02-26T11:14:24;2.67;;;1.70;;
11711;SDS011;5912;51.034;6.984;2024-02-26T11:16:51;2.03;;;1.33;;
11711;SDS011;5912;51.034;6.984;2024-02-26T11:19:16;2.25;;;1.77;;
11711;SDS011;5912;51.034;6.984;2024-02-26T11:21:43;3.25;;;2.13;;
11711;SDS011;5912;51.034;6.984;2024-02-26T11:24:12;2.20;;;1.98;;
11711;SDS011;5912;51.034;6.984;2024-02-26T11:26:41;1.83;;;1.42;;
11711;SDS011;5912;51.034;6.984;2024-02-26T11:29:13;2.53;;;1.73;;
11711;SDS011;5912;51.034;6.984;2024-02-26T11:31:42;1.98;;;1.77;;
11711;SDS011;5912;51.034;6.984;2024-02-26T11:34:08;3.25;;;1.77;;
11711;SDS011;5912;51.034;6.984;2024-02-26T11:36:34;2.30;;;1.80;;
11711;SDS011;5912;51.034;6.984;2024-02-26T11:39:01;3.25;;;1.70;;
11711;SDS011;5912;51.034;6.984;2024-02-26T11:41:29;2.15;;;1.58;;
11711;SDS011;5912;51.034;6.984;2024-02-26T11:43:58;3.28;;;2.55;;
11711;SDS011;5912;51.034;6.984;2024-02-26T11:46:31;3.00;;;1.58;;
11711;SDS011;5912;51.034;6.984;2024-02-26T11:51:56;2.55;;;1.58;;
11711;SDS011;5912;51.034;6.984;2024-02-26T11:54:38;2.05;;;1.48;;
11711;SDS011;5912;51.034;6.984;2024-02-26T11:59:48;1.80;;;1.35;;
11711;SDS011;5912;51.034;6.984;2024-02-26T12:05:10;2.10;;;1.60;;
11711;SDS011;5912;51.034;6.984;2024-02-26T12:07:40;3.20;;;2.40;;
11711;SDS011;5912;51.034;6.984;2024-02-26T12:10:13;2.97;;;2.67;;
11711;SDS011;5912;51.034;6.984;2024-02-26T12:12:41;4.90;;;2.72;;
11711;SDS011;5912;51.034;6.984;2024-02-26T12:15:07;2.28;;;1.50;;
11711;SDS011;5912;51.034;6.984;2024-02-26T12:17:33;3.63;;;2.83;;
11711;SDS011;5912;51.034;6.984;2024-02-26T12:20:13;2.28;;;1.63;;
11711;SDS011;5912;51.034;6.984;2024-02-26T12:22:44;2.80;;;2.45;;
11711;SDS011;5912;51.034;6.984;2024-02-26T12:25:12;5.55;;;2.65;;
11711;SDS011;5912;51.034;6.984;2024-02-26T12:27:38;2.58;;;1.80;;
11711;SDS011;5912;51.034;6.984;2024-02-26T12:30:03;3.85;;;2.25;;
11711;SDS011;5912;51.034;6.984;2024-02-26T12:32:31;5.25;;;2.22;;
11711;SDS011;5912;51.034;6.984;2024-02-26T12:34:57;2.85;;;1.88;;
11711;SDS011;5912;51.034;6.984;2024-02-26T12:37:25;3.55;;;2.20;;
11711;SDS011;5912;51.034;6.984;2024-02-26T12:39:52;3.47;;;2.20;;
11711;SDS011;5912;51.034;6.984;2024-02-26T12:42:17;2.83;;;1.98;;
11711;SDS011;5912;51.034;6.984;2024-02-26T12:44:44;3.28;;;2.33;;
11711;SDS011;5912;51.034;6.984;2024-02-26T12:47:11;3.15;;;2.13;;
11711;SDS011;5912;51.034;6.984;2024-02-26T12:49:41;2.92;;;2.40;;
11711;SDS011;5912;51.034;6.984;2024-02-26T12:52:08;2.78;;;1.88;;
11711;SDS011;5912;51.034;6.984;2024-02-26T12:54:34;2.70;;;2.40;;
11711;SDS011;5912;51.034;6.984;2024-02-26T12:57:04;3.22;;;2.58;;
11711;SDS011;5912;51.034;6.984;2024-02-26T12:59:32;2.67;;;1.95;;
11711;SDS011;5912;51.034;6.984;2024-02-26T13:01:59;5.60;;;3.90;;
11711;SDS011;5912;51.034;6.984;2024-02-26T13:04:29;3.17;;;2.17;;
11711;SDS011;5912;51.034;6.984;2024-02-26T13:06:55;3.45;;;2.42;;
11711;SDS011;5912;51.034;6.984;2024-02-26T13:09:27;4.45;;;2.78;;
11711;SDS011;5912;51.034;6.984;2024-02-26T13:11:56;4.90;;;3.10;;
11711;SDS011;5912;51.034;6.984;2024-02-26T13:14:21;5.15;;;3.70;;
11711;SDS011;5912;51.034;6.984;2024-02-26T13:16:54;3.78;;;2.35;;
11711;SDS011;5912;51.034;6.984;2024-02-26T13:19:21;3.33;;;2.42;;
11711;SDS011;5912;51.034;6.984;2024-02-26T13:21:47;8.25;;;5.65;;
11711;SDS011;5912;51.034;6.984;2024-02-26T13:24:13;4.63;;;3.30;;
11711;SDS011;5912;51.034;6.984;2024-02-26T13:26:39;5.57;;;4.00;;
11711;SDS011;5912;51.034;6.984;2024-02-26T13:29:05;5.35;;;3.53;;
11711;SDS011;5912;51.034;6.984;2024-02-26T13:31:30;5.20;;;3.92;;
11711;SDS011;5912;51.034;6.984;2024-02-26T13:33:57;5.90;;;4.20;;
11711;SDS011;5912;51.034;6.984;2024-02-26T13:36:22;6.90;;;4.60;;
11711;SDS011;5912;51.034;6.984;2024-02-26T13:38:52;7.30;;;4.63;;
11711;SDS011;5912;51.034;6.984;2024-02-26T13:41:19;7.75;;;4.00;;
11711;SDS011;5912;51.034;6.984;2024-02-26T13:43:46;5.30;;;4.03;;
11711;SDS011;5912;51.034;6.984;2024-02-26T13:46:12;5.85;;;3.42;;
11711;SDS011;5912;51.034;6.984;2024-02-26T13:48:40;6.13;;;3.75;;
11711;SDS011;5912;51.034;6.984;2024-02-26T13:51:06;6.00;;;4.00;;
11711;SDS011;5912;51.034;6.984;2024-02-26T13:53:32;5.40;;;3.90;;
11711;SDS011;5912;51.034;6.984;2024-02-26T13:55:57;6.40;;;3.65;;
11711;SDS011;5912;51.034;6.984;2024-02-26T13:58:26;5.20;;;3.70;;
11711;SDS011;5912;51.034;6.984;2024-02-26T14:00:53;4.85;;;3.92;;
11711;SDS011;5912;51.034;6.984;2024-02-26T14:03:21;4.88;;;3.72;;
11711;SDS011;5912;51.034;6.984;2024-02-26T14:05:47;4.63;;;3.58;;
11711;SDS011;5912;51.034;6.984;2024-02-26T14:08:13;4.18;;;3.78;;
11711;SDS011;5912;51.034;6.984;2024-02-26T14:10:39;7.32;;;4.35;;
11711;SDS011;5912;51.034;6.984;2024-02-26T14:13:05;5.13;;;4.10;;
11711;SDS011;5912;51.034;6.984;2024-02-26T14:15:30;5.85;;;4.00;;
11711;SDS011;5912;51.034;6.984;2024-02-26T14:17:56;6.85;;;4.90;;
11711;SDS011;5912;51.034;6.984;2024-02-26T14:20:22;6.68;;;4.32;;
11711;SDS011;5912;51.034;6.984;2024-02-26T14:22:49;5.15;;;3.75;;
11711;SDS011;5912;51.034;6.984;2024-02-26T14:25:24;10.48;;;4.70;;
11711;SDS011;5912;51.034;6.984;2024-02-26T14:27:49;5.88;;;4.25;;
11711;SDS011;5912;51.034;6.984;2024-02-26T14:30:15;6.47;;;4.65;;
11711;SDS011;5912;51.034;6.984;2024-02-26T14:32:40;6.15;;;4.63;;
11711;SDS011;5912;51.034;6.984;2024-02-26T14:35:06;5.72;;;4.50;;
11711;SDS011;5912;51.034;6.984;2024-02-26T14:37:34;6.55;;;4.50;;
11711;SDS011;5912;51.034;6.984;2024-02-26T14:40:00;6.10;;;4.78;;
11711;SDS011;5912;51.034;6.984;2024-02-26T14:42:27;6.38;;;4.80;;
11711;SDS011;5912;51.034;6.984;2024-02-26T14:44:53;5.28;;;4.68;;
11711;SDS011;5912;51.034;6.984;2024-02-26T14:47:19;6.63;;;4.82;;
11711;SDS011;5912;51.034;6.984;2024-02-26T14:49:44;8.60;;;5.65;;
11711;SDS011;5912;51.034;6.984;2024-02-26T14:52:12;5.97;;;4.82;;
11711;SDS011;5912;51.034;6.984;2024-02-26T14:54:38;6.55;;;5.30;;
11711;SDS011;5912;51.034;6.984;2024-02-26T14:57:04;7.43;;;5.32;;
11711;SDS011;5912;51.034;6.984;2024-02-26T15:02:20;6.63;;;5.45;;
11711;SDS011;5912;51.034;6.984;2024-02-26T15:04:45;7.93;;;5.43;;
11711;SDS011;5912;51.034;6.984;2024-02-26T15:07:11;7.80;;;5.55;;
11711;SDS011;5912;51.034;6.984;2024-02-26T15:09:37;7.38;;;5.57;;